createdAt,value
2017-11-03T00:00:14.489Z,19.03
2017-11-03T00:02:42.708Z,18.57
2017-11-03T00:05:10.160Z,17.27
2017-11-03T00:07:37.599Z,18.67
2017-11-03T00:10:05.031Z,18.57
2017-11-03T00:12:33.270Z,19.40
2017-11-03T00:15:00.712Z,20.37
2017-11-03T00:17:28.151Z,19.57
2017-11-03T00:19:55.630Z,16.70
2017-11-03T00:22:23.078Z,18.90
2017-11-03T00:24:50.531Z,20.47
2017-11-03T00:27:18.012Z,18.73
2017-11-03T00:29:45.484Z,20.63
2017-11-03T00:32:12.928Z,19.90
2017-11-03T00:34:40.367Z,18.70
2017-11-03T00:37:07.817Z,18.70
2017-11-03T00:39:35.287Z,20.33
2017-11-03T00:42:02.751Z,19.23
2017-11-03T00:44:30.194Z,17.17
2017-11-03T00:46:57.667Z,20.77
2017-11-03T00:49:25.126Z,19.60
2017-11-03T00:51:52.581Z,19.70
2017-11-03T00:54:20.022Z,20.60
2017-11-03T00:56:47.474Z,20.17
2017-11-03T00:59:14.931Z,20.40
2017-11-03T01:01:42.354Z,21.67
2017-11-03T01:04:10.579Z,19.47
2017-11-03T01:06:38.014Z,20.80
2017-11-03T01:09:05.456Z,18.60
2017-11-03T01:11:32.893Z,16.67
2017-11-03T01:14:01.137Z,18.97
2017-11-03T01:16:28.578Z,16.80
2017-11-03T01:18:56.014Z,16.13
2017-11-03T01:21:23.458Z,18.70
2017-11-03T01:23:50.902Z,17.30
2017-11-03T01:26:19.138Z,18.70
2017-11-03T01:28:46.593Z,15.97
2017-11-03T01:31:14.031Z,19.27
2017-11-03T01:33:41.501Z,19.57
2017-11-03T01:36:08.946Z,17.30
2017-11-03T01:38:36.455Z,18.50
2017-11-03T01:41:04.838Z,19.80
2017-11-03T01:43:33.058Z,19.50
2017-11-03T01:46:00.510Z,16.40
2017-11-03T01:48:28.094Z,18.67
2017-11-03T01:50:55.558Z,20.53
2017-11-03T01:53:22.998Z,19.27
2017-11-03T01:55:50.458Z,18.93
2017-11-03T01:58:17.925Z,17.90
2017-11-03T02:00:45.380Z,20.43
2017-11-03T02:03:12.815Z,19.40
2017-11-03T02:05:40.263Z,21.23
2017-11-03T02:08:12.567Z,20.17
2017-11-03T02:10:40.030Z,21.40
2017-11-03T02:13:07.478Z,19.70
2017-11-03T02:15:34.902Z,20.10
2017-11-03T02:18:02.386Z,18.57
2017-11-03T02:20:29.838Z,20.53
2017-11-03T02:22:57.286Z,17.50
2017-11-03T02:25:24.735Z,18.10
2017-11-03T02:27:52.182Z,18.17
2017-11-03T02:30:19.623Z,19.20
2017-11-03T02:32:47.113Z,21.23
2017-11-03T02:35:14.595Z,19.80
2017-11-03T02:37:42.030Z,19.47
2017-11-03T02:40:09.490Z,20.83
2017-11-03T02:42:36.943Z,17.00
2017-11-03T02:45:04.402Z,18.87
2017-11-03T02:47:31.882Z,19.20
2017-11-03T02:49:59.428Z,19.97
2017-11-03T02:52:26.895Z,19.73
2017-11-03T02:54:54.370Z,20.30
2017-11-03T02:57:21.798Z,19.47
2017-11-03T02:59:49.244Z,20.20
2017-11-03T03:02:16.722Z,17.60
2017-11-03T03:04:44.185Z,19.23
2017-11-03T03:07:11.636Z,19.33
2017-11-03T03:09:39.454Z,19.33
2017-11-03T03:12:06.901Z,18.53
2017-11-03T03:14:35.109Z,19.80
2017-11-03T03:17:02.571Z,20.20
2017-11-03T03:19:30.053Z,20.07
2017-11-03T03:21:57.489Z,20.30
2017-11-03T03:24:24.944Z,21.63
2017-11-03T03:26:52.395Z,22.03
2017-11-03T03:29:19.870Z,19.47
2017-11-03T03:31:47.315Z,21.27
2017-11-03T03:34:14.774Z,21.20
2017-11-03T03:36:42.230Z,20.03
2017-11-03T03:39:09.714Z,22.30
2017-11-03T03:41:37.163Z,19.90
2017-11-03T03:44:04.605Z,22.20
2017-11-03T03:46:32.058Z,20.60
2017-11-03T03:48:59.490Z,20.37
2017-11-03T03:51:26.983Z,19.30
2017-11-03T03:53:54.430Z,21.70
2017-11-03T03:56:21.886Z,22.63
2017-11-03T03:58:49.325Z,20.50
2017-11-03T04:01:16.860Z,21.97
2017-11-03T04:03:45.096Z,20.40
2017-11-03T04:06:12.534Z,22.63
2017-11-03T04:08:39.986Z,19.00
2017-11-03T04:11:07.426Z,18.00
2017-11-03T04:13:34.913Z,19.17
2017-11-03T04:16:02.383Z,21.10
2017-11-03T04:18:29.850Z,19.37
2017-11-03T04:20:57.314Z,19.60
2017-11-03T04:23:24.747Z,20.17
2017-11-03T04:25:52.190Z,20.40
2017-11-03T04:28:19.633Z,20.77
2017-11-03T04:30:47.119Z,21.23
2017-11-03T04:33:14.582Z,19.07
2017-11-03T04:35:42.070Z,19.67
2017-11-03T04:38:10.281Z,19.53
2017-11-03T04:40:37.721Z,19.57
2017-11-03T04:43:05.161Z,20.13
2017-11-03T04:45:33.380Z,20.90
2017-11-03T04:48:00.861Z,18.07
2017-11-03T04:50:28.311Z,21.30
2017-11-03T04:52:55.865Z,19.33
2017-11-03T04:55:23.315Z,21.47
2017-11-03T04:57:50.783Z,22.33
2017-11-03T05:00:18.251Z,19.80
2017-11-03T05:02:45.706Z,23.80
2017-11-03T05:05:13.173Z,22.23
2017-11-03T05:07:40.611Z,18.70
2017-11-03T05:10:08.056Z,21.07
2017-11-03T05:12:35.498Z,20.60
2017-11-03T05:15:02.951Z,20.40
2017-11-03T05:17:30.398Z,19.97
2017-11-03T05:19:58.727Z,20.40
2017-11-03T05:22:26.168Z,22.77
2017-11-03T05:24:53.613Z,26.87
2017-11-03T05:27:21.071Z,20.87
2017-11-03T05:29:48.507Z,23.20
2017-11-03T05:32:15.960Z,21.17
2017-11-03T05:34:43.403Z,22.50
2017-11-03T05:37:11.621Z,21.37
2017-11-03T05:39:39.063Z,21.07
2017-11-03T05:42:06.649Z,21.40
2017-11-03T05:44:34.098Z,21.40
2017-11-03T05:47:01.545Z,20.40
2017-11-03T05:49:29.025Z,21.40
2017-11-03T05:51:56.467Z,23.13
2017-11-03T05:54:23.948Z,21.70
2017-11-03T05:56:51.497Z,20.67
2017-11-03T05:59:18.950Z,21.37
2017-11-03T06:01:46.411Z,21.20
2017-11-03T06:04:13.856Z,20.57
2017-11-03T06:06:41.335Z,17.10
2017-11-03T06:09:08.775Z,22.97
2017-11-03T06:11:36.223Z,19.20
2017-11-03T06:14:03.653Z,19.37
2017-11-03T06:16:31.862Z,17.10
2017-11-03T06:18:59.303Z,18.47
2017-11-03T06:21:26.773Z,19.10
2017-11-03T06:23:54.223Z,18.73
2017-11-03T06:26:21.707Z,20.17
2017-11-03T06:28:49.171Z,18.87
2017-11-03T06:31:23.510Z,20.03
2017-11-03T06:33:51.857Z,19.20
2017-11-03T06:36:19.299Z,17.63
2017-11-03T06:38:46.751Z,19.83
2017-11-03T06:41:14.178Z,19.10
2017-11-03T06:43:41.772Z,20.93
2017-11-03T06:46:09.194Z,17.87
2017-11-03T06:48:37.402Z,19.30
2017-11-03T06:51:04.846Z,16.90
2017-11-03T06:53:32.345Z,18.83
2017-11-03T06:55:59.794Z,19.30
2017-11-03T06:58:27.227Z,15.73
2017-11-03T07:00:54.684Z,18.60
2017-11-03T07:03:22.128Z,18.37
2017-11-03T07:05:49.623Z,16.67
2017-11-03T07:08:17.062Z,17.60
2017-11-03T07:10:44.493Z,17.90
2017-11-03T07:13:11.946Z,17.93
2017-11-03T07:15:39.387Z,17.00
2017-11-03T07:18:07.606Z,16.03
2017-11-03T07:20:35.042Z,16.40
2017-11-03T07:23:02.487Z,18.70
2017-11-03T07:25:30.694Z,18.07
2017-11-03T07:27:58.162Z,17.87
2017-11-03T07:30:25.624Z,17.33
2017-11-03T07:32:53.059Z,20.63
2017-11-03T07:35:20.498Z,17.10
2017-11-03T07:37:47.990Z,18.37
2017-11-03T07:40:15.439Z,19.10
2017-11-03T07:42:42.880Z,19.47
2017-11-03T07:45:10.335Z,20.10
2017-11-03T07:47:37.763Z,19.50
2017-11-03T07:50:05.990Z,17.33
2017-11-03T07:52:33.458Z,18.67
2017-11-03T07:55:00.907Z,18.20
2017-11-03T07:57:28.369Z,17.77
2017-11-03T07:59:55.812Z,18.83
2017-11-03T08:02:23.263Z,17.70
2017-11-03T08:04:50.690Z,18.47
2017-11-03T08:07:19.016Z,18.10
2017-11-03T08:09:46.448Z,18.57
2017-11-03T08:12:13.931Z,18.33
2017-11-03T08:14:41.487Z,20.60
2017-11-03T08:17:08.920Z,18.50
2017-11-03T08:19:36.390Z,19.90
2017-11-03T08:22:03.866Z,16.87
2017-11-03T08:24:31.294Z,18.17
2017-11-03T08:26:58.738Z,18.03
2017-11-03T08:29:26.241Z,20.00
2017-11-03T08:31:53.695Z,19.40
2017-11-03T08:34:21.162Z,16.57
2017-11-03T08:36:48.625Z,16.50
2017-11-03T08:39:16.071Z,16.40
2017-11-03T08:41:43.519Z,17.80
2017-11-03T08:44:10.977Z,17.20
2017-11-03T08:46:38.420Z,15.90
2017-11-03T08:49:05.873Z,18.13
2017-11-03T08:51:33.307Z,19.50
2017-11-03T08:54:00.750Z,20.67
2017-11-03T08:56:28.981Z,16.73
2017-11-03T08:58:56.442Z,19.37
2017-11-03T09:01:23.878Z,17.20
2017-11-03T09:03:51.310Z,20.77
2017-11-03T09:06:18.762Z,16.87
2017-11-03T09:08:46.972Z,18.17
2017-11-03T09:11:14.442Z,18.10
2017-11-03T09:13:41.886Z,18.80
2017-11-03T09:16:09.362Z,17.03
2017-11-03T09:18:36.816Z,15.70
2017-11-03T09:21:04.261Z,15.80
2017-11-03T09:23:31.720Z,17.77
2017-11-03T09:25:59.167Z,18.17
2017-11-03T09:28:26.623Z,17.97
2017-11-03T09:30:54.069Z,17.60
2017-11-03T09:33:21.550Z,16.47
2017-11-03T09:35:49.927Z,16.33
2017-11-03T09:38:17.387Z,17.60
2017-11-03T09:40:44.834Z,18.87
2017-11-03T09:43:12.281Z,14.60
2017-11-03T09:45:39.740Z,17.60
2017-11-03T09:48:07.214Z,16.87
2017-11-03T09:50:34.676Z,19.10
2017-11-03T09:53:02.133Z,21.70
2017-11-03T09:55:29.574Z,19.63
2017-11-03T09:57:57.030Z,19.37
2017-11-03T10:00:24.471Z,21.30
2017-11-03T10:02:51.924Z,18.77
2017-11-03T10:05:19.372Z,21.40
2017-11-03T10:07:47.579Z,19.93
2017-11-03T10:10:15.055Z,19.10
2017-11-03T10:12:42.510Z,20.93
2017-11-03T10:15:09.970Z,18.90
2017-11-03T10:17:37.406Z,20.90
2017-11-03T10:20:04.858Z,20.83
2017-11-03T10:22:32.339Z,20.50
2017-11-03T10:24:59.792Z,20.40
2017-11-03T10:27:27.266Z,21.23
2017-11-03T10:29:54.819Z,20.80
2017-11-03T10:32:22.271Z,21.10
2017-11-03T10:34:49.723Z,19.57
2017-11-03T10:37:17.166Z,20.67
2017-11-03T10:39:44.642Z,19.83
2017-11-03T10:42:12.090Z,20.20
2017-11-03T10:44:39.539Z,18.80
2017-11-03T10:47:07.012Z,18.17
2017-11-03T10:49:34.451Z,20.10
2017-11-03T10:52:01.919Z,17.77
2017-11-03T10:54:29.366Z,18.17
2017-11-03T10:56:56.805Z,18.77
2017-11-03T10:59:24.275Z,19.50
2017-11-03T11:01:51.723Z,18.00
2017-11-03T11:04:19.174Z,16.17
2017-11-03T11:06:46.624Z,19.20
2017-11-03T11:09:14.104Z,16.03
2017-11-03T11:11:41.546Z,15.83
2017-11-03T11:14:08.993Z,16.37
2017-11-03T11:16:36.447Z,17.27
2017-11-03T11:19:03.887Z,17.77
2017-11-03T11:21:31.418Z,15.53
2017-11-03T11:23:58.872Z,16.97
2017-11-03T11:26:26.342Z,17.03
2017-11-03T11:28:53.897Z,16.83
2017-11-03T11:31:21.351Z,15.90
2017-11-03T11:33:48.816Z,13.43
2017-11-03T11:36:16.263Z,13.03
2017-11-03T11:38:43.729Z,14.77
2017-11-03T11:41:11.195Z,13.83
2017-11-03T11:43:38.735Z,14.40
2017-11-03T11:46:06.195Z,15.47
2017-11-03T11:48:33.648Z,15.83
2017-11-03T11:51:01.318Z,13.00
2017-11-03T11:53:28.870Z,12.40
2017-11-03T11:55:56.339Z,12.03
2017-11-03T11:58:23.787Z,10.00
2017-11-03T12:00:51.226Z,10.60
2017-11-03T12:03:18.682Z,12.00
2017-11-03T12:05:46.136Z,12.20
2017-11-03T12:08:13.621Z,11.60
2017-11-03T12:10:41.074Z,12.30
2017-11-03T12:13:08.517Z,11.10
2017-11-03T12:15:35.967Z,11.63
2017-11-03T12:18:03.424Z,11.87
2017-11-03T12:20:31.002Z,11.33
2017-11-03T12:22:58.460Z,11.37
2017-11-03T12:25:25.903Z,10.87
2017-11-03T12:27:53.370Z,11.27
2017-11-03T12:30:20.822Z,10.23
2017-11-03T12:32:48.287Z,11.63
2017-11-03T12:35:15.744Z,11.07
2017-11-03T12:37:43.195Z,12.90
2017-11-03T12:40:10.658Z,11.30
2017-11-03T12:42:38.107Z,12.13
2017-11-03T12:45:05.573Z,12.90
2017-11-03T12:47:33.033Z,12.20
2017-11-03T12:50:00.487Z,12.87
2017-11-03T12:52:28.046Z,15.17
2017-11-03T12:54:55.493Z,13.80
2017-11-03T12:57:22.963Z,14.53
2017-11-03T12:59:50.420Z,14.60
2017-11-03T13:02:17.875Z,15.30
2017-11-03T13:04:45.318Z,16.03
2017-11-03T13:07:12.802Z,15.70
2017-11-03T13:09:40.351Z,17.03
2017-11-03T13:12:07.798Z,15.27
2017-11-03T13:14:35.265Z,16.20
2017-11-03T13:17:02.727Z,16.70
2017-11-03T13:19:30.293Z,14.53
2017-11-03T13:21:57.732Z,16.70
2017-11-03T13:24:25.196Z,17.23
2017-11-03T13:26:52.644Z,15.07
2017-11-03T13:29:20.075Z,16.50
2017-11-03T13:31:47.525Z,17.03
2017-11-03T13:34:15.027Z,15.93
2017-11-03T13:36:42.582Z,16.47
2017-11-03T13:39:10.023Z,17.80
2017-11-03T13:41:37.494Z,17.77
2017-11-03T13:44:04.964Z,16.40
2017-11-03T13:46:32.415Z,15.07
2017-11-03T13:48:59.867Z,16.70
2017-11-03T13:51:27.327Z,16.67
2017-11-03T13:53:54.890Z,14.10
2017-11-03T13:56:22.350Z,15.93
2017-11-03T13:58:49.834Z,13.93
2017-11-03T14:01:18.084Z,15.87
2017-11-03T14:03:45.535Z,15.57
2017-11-03T14:06:13.002Z,16.97
2017-11-03T14:08:40.451Z,17.10
2017-11-03T14:11:07.905Z,17.07
2017-11-03T14:13:35.467Z,16.37
2017-11-03T14:16:03.027Z,18.37
2017-11-03T14:18:30.482Z,16.60
2017-11-03T14:20:57.950Z,15.83
2017-11-03T14:23:25.410Z,16.33
2017-11-03T14:25:52.854Z,14.70
2017-11-03T14:28:20.311Z,15.53
2017-11-03T14:30:47.768Z,15.80
2017-11-03T14:33:15.244Z,17.07
2017-11-03T14:35:42.695Z,15.23
2017-11-03T14:38:10.147Z,17.03
2017-11-03T14:40:37.595Z,14.67
2017-11-03T14:43:05.067Z,13.30
2017-11-03T14:45:32.523Z,15.00
2017-11-03T14:47:59.972Z,17.60
2017-11-03T14:50:27.455Z,16.17
2017-11-03T14:52:55.659Z,17.00
2017-11-03T14:55:23.116Z,16.37
2017-11-03T14:57:50.569Z,16.50
2017-11-03T15:00:18.071Z,16.20
2017-11-03T15:02:45.531Z,14.10
2017-11-03T15:05:12.975Z,16.37
2017-11-03T15:07:40.447Z,15.40
2017-11-03T15:10:07.907Z,15.43
2017-11-03T15:12:35.342Z,17.27
2017-11-03T15:15:02.799Z,14.63
2017-11-03T15:17:30.250Z,14.40
2017-11-03T15:19:57.738Z,13.33
2017-11-03T15:22:25.193Z,13.80
2017-11-03T15:24:52.662Z,14.20
2017-11-03T15:27:20.108Z,13.03
2017-11-03T15:29:47.559Z,12.90
2017-11-03T15:32:15.047Z,15.40
2017-11-03T15:34:42.487Z,13.03
2017-11-03T15:37:10.039Z,13.23
2017-11-03T15:39:37.484Z,14.73
2017-11-03T15:42:04.946Z,13.10
2017-11-03T15:44:32.408Z,12.20
2017-11-03T15:46:59.879Z,15.40
2017-11-03T15:49:27.335Z,13.33
2017-11-03T15:51:55.553Z,12.80
2017-11-03T15:54:22.986Z,13.50
2017-11-03T15:56:51.232Z,12.63
2017-11-03T15:59:18.682Z,12.17
2017-11-03T16:01:46.243Z,14.73
2017-11-03T16:04:13.706Z,15.60
2017-11-03T16:06:41.155Z,14.93
2017-11-03T16:09:08.636Z,15.67
2017-11-03T16:11:37.635Z,15.80
2017-11-03T16:14:05.843Z,13.33
2017-11-03T16:16:33.299Z,13.40
2017-11-03T16:19:00.738Z,15.10
2017-11-03T16:21:28.972Z,13.80
2017-11-03T16:23:56.537Z,15.50
2017-11-03T16:26:23.987Z,13.83
2017-11-03T16:28:51.503Z,15.40
2017-11-03T16:31:19.016Z,14.97
2017-11-03T16:33:46.490Z,15.13
2017-11-03T16:36:14.703Z,14.23
2017-11-03T16:38:42.195Z,15.87
2017-11-03T16:41:09.659Z,13.40
2017-11-03T16:43:37.111Z,13.67
2017-11-03T16:46:04.553Z,15.60
2017-11-03T16:48:32.013Z,12.07
2017-11-03T16:50:59.563Z,14.50
2017-11-03T16:53:26.987Z,14.80
2017-11-03T16:55:54.421Z,14.03
2017-11-03T16:58:21.882Z,19.00
2017-11-03T17:00:49.324Z,17.83
2017-11-03T17:03:16.783Z,14.90
2017-11-03T17:05:44.232Z,17.17
2017-11-03T17:08:11.689Z,17.27
2017-11-03T17:10:39.138Z,16.73
2017-11-03T17:13:06.598Z,17.67
2017-11-03T17:15:34.088Z,18.43
2017-11-03T17:18:02.399Z,15.40
2017-11-03T17:20:29.852Z,17.10
2017-11-03T17:22:57.306Z,15.37
2017-11-03T17:25:24.758Z,17.00
2017-11-03T17:27:52.208Z,16.83
2017-11-03T17:30:20.414Z,15.90
2017-11-03T17:32:47.895Z,16.67
2017-11-03T17:35:15.352Z,17.03
2017-11-03T17:37:42.793Z,16.00
2017-11-03T17:40:10.252Z,17.17
2017-11-03T17:42:37.711Z,16.20
2017-11-03T17:45:05.155Z,16.83
2017-11-03T17:47:32.595Z,16.50
2017-11-03T17:50:00.066Z,18.50
2017-11-03T17:52:27.507Z,17.30
2017-11-03T17:54:54.955Z,19.47
2017-11-03T17:57:22.417Z,16.87
2017-11-03T17:59:49.856Z,17.50
2017-11-03T18:02:18.083Z,17.67
2017-11-03T18:04:45.531Z,17.00
2017-11-03T18:07:12.998Z,16.83
2017-11-03T18:09:40.447Z,16.70
2017-11-03T18:12:07.901Z,17.30
2017-11-03T18:14:35.368Z,16.07
2017-11-03T18:17:02.820Z,15.87
2017-11-03T18:19:30.276Z,16.10
2017-11-03T18:21:57.731Z,17.70
2017-11-03T18:24:25.207Z,15.67
2017-11-03T18:26:52.659Z,18.57
2017-11-03T18:29:20.112Z,17.73
2017-11-03T18:31:47.572Z,17.33
2017-11-03T18:34:15.024Z,16.60
2017-11-03T18:36:42.474Z,20.20
2017-11-03T18:39:09.917Z,19.87
2017-11-03T18:41:37.390Z,19.87
2017-11-03T18:44:04.830Z,18.27
2017-11-03T18:46:32.268Z,18.33
2017-11-03T18:49:00.491Z,20.60
2017-11-03T18:51:27.945Z,18.63
2017-11-03T18:53:55.401Z,18.87
2017-11-03T18:56:22.847Z,18.20
2017-11-03T18:58:50.329Z,17.87
2017-11-03T19:01:17.766Z,18.30
2017-11-03T19:03:45.220Z,16.90
2017-11-03T19:06:12.678Z,18.57
2017-11-03T19:08:40.133Z,17.50
2017-11-03T19:11:07.595Z,18.70
2017-11-03T19:13:35.047Z,18.60
2017-11-03T19:16:02.518Z,20.00
2017-11-03T19:18:29.947Z,18.50
2017-11-03T19:20:57.394Z,16.10
2017-11-03T19:23:24.851Z,17.10
2017-11-03T19:25:52.291Z,16.17
2017-11-03T19:28:20.515Z,16.60
2017-11-03T19:30:47.970Z,17.80
2017-11-03T19:33:15.443Z,17.27
2017-11-03T19:35:43.655Z,18.63
2017-11-03T19:38:11.865Z,17.27
2017-11-03T19:40:39.324Z,17.10
2017-11-03T19:43:06.780Z,19.20
2017-11-03T19:45:34.238Z,25.53
2017-11-03T19:48:01.683Z,35.33
2017-11-03T19:50:29.192Z,29.60
2017-11-03T19:52:56.643Z,28.03
2017-11-03T19:55:24.095Z,21.33
2017-11-03T19:57:51.547Z,20.77
2017-11-03T20:00:18.991Z,20.37
2017-11-03T20:02:46.579Z,20.40
2017-11-03T20:05:14.023Z,21.20
2017-11-03T20:07:41.525Z,21.47
2017-11-03T20:10:09.736Z,20.57
2017-11-03T20:12:37.182Z,20.40
2017-11-03T20:15:04.648Z,18.80
2017-11-03T20:17:32.089Z,20.30
2017-11-03T20:19:59.534Z,19.57
2017-11-03T20:22:27.750Z,19.40
2017-11-03T20:24:55.220Z,18.90
2017-11-03T20:27:22.679Z,18.43
2017-11-03T20:29:50.135Z,18.53
2017-11-03T20:32:17.592Z,19.00
2017-11-03T20:34:45.036Z,20.43
2017-11-03T20:37:12.486Z,19.00
2017-11-03T20:39:39.931Z,18.63
2017-11-03T20:42:07.377Z,22.33
2017-11-03T20:44:34.818Z,17.93
2017-11-03T20:47:03.059Z,20.90
2017-11-03T20:49:30.509Z,19.03
2017-11-03T20:51:57.942Z,20.43
2017-11-03T20:54:25.398Z,19.43
2017-11-03T20:56:52.849Z,19.60
2017-11-03T20:59:20.299Z,20.93
2017-11-03T21:01:47.736Z,20.53
2017-11-03T21:04:15.966Z,19.70
2017-11-03T21:06:43.414Z,19.50
2017-11-03T21:09:10.888Z,18.87
2017-11-03T21:11:38.338Z,20.27
2017-11-03T21:14:05.770Z,20.03
2017-11-03T21:16:33.232Z,21.70
2017-11-03T21:19:00.675Z,19.43
2017-11-03T21:21:28.142Z,19.67
2017-11-03T21:23:55.594Z,18.80
2017-11-03T21:26:23.056Z,17.10
2017-11-03T21:28:50.499Z,19.20
2017-11-03T21:31:17.970Z,19.30
2017-11-03T21:33:45.415Z,19.80
2017-11-03T21:36:12.851Z,21.33
2017-11-03T21:38:41.069Z,18.27
2017-11-03T21:41:08.524Z,17.67
2017-11-03T21:43:36.007Z,19.17
2017-11-03T21:46:03.449Z,17.50
2017-11-03T21:48:30.909Z,15.63
2017-11-03T21:50:58.347Z,17.30
2017-11-03T21:53:25.800Z,17.53
2017-11-03T21:55:53.238Z,18.60
2017-11-03T21:58:20.679Z,16.40
2017-11-03T22:00:48.903Z,17.47
2017-11-03T22:03:16.362Z,15.90
2017-11-03T22:05:43.938Z,16.17
2017-11-03T22:08:11.368Z,16.00
2017-11-03T22:10:38.828Z,20.27
2017-11-03T22:13:06.294Z,29.20
2017-11-03T22:15:33.740Z,25.97
2017-11-03T22:18:01.215Z,26.70
2017-11-03T22:20:28.659Z,23.13
2017-11-03T22:22:56.108Z,19.00
2017-11-03T22:25:23.587Z,18.57
2017-11-03T22:27:51.046Z,17.40
2017-11-03T22:30:18.512Z,19.30
2017-11-03T22:32:45.955Z,17.87
2017-11-03T22:35:13.398Z,16.50
2017-11-03T22:37:40.855Z,16.20
2017-11-03T22:40:08.304Z,16.07
2017-11-03T22:42:35.765Z,15.57
2017-11-03T22:45:03.217Z,13.87
2017-11-03T22:47:30.699Z,14.97
2017-11-03T22:49:58.158Z,14.57
2017-11-03T22:52:25.597Z,14.80
2017-11-03T22:54:53.057Z,14.87
2017-11-03T22:57:20.508Z,13.63
2017-11-03T22:59:47.974Z,14.20
2017-11-03T23:02:15.420Z,13.33
2017-11-03T23:04:42.869Z,13.10
2017-11-03T23:07:10.314Z,15.83
2017-11-03T23:09:37.760Z,16.40
2017-11-03T23:12:05.971Z,16.10
2017-11-03T23:14:33.419Z,14.80
2017-11-03T23:17:00.880Z,14.57
2017-11-03T23:19:28.333Z,14.00
2017-11-03T23:21:56.701Z,13.60
2017-11-03T23:24:24.158Z,13.57
2017-11-03T23:26:51.601Z,13.57
2017-11-03T23:29:19.836Z,14.77
2017-11-03T23:31:47.286Z,13.47
2017-11-03T23:34:14.719Z,15.30
2017-11-03T23:36:42.171Z,15.27
2017-11-03T23:39:09.603Z,14.37
2017-11-03T23:41:37.874Z,13.20
2017-11-03T23:44:06.088Z,12.63
2017-11-03T23:46:33.537Z,10.80
2017-11-03T23:49:00.974Z,12.33
2017-11-03T23:51:28.424Z,11.53
2017-11-03T23:53:56.631Z,11.10
2017-11-03T23:56:24.082Z,11.30
2017-11-03T23:58:51.548Z,10.53
